Time;durP1;ratioP1;P1;durP2;ratioP2;P2;SDS_P1;SDS_P2;PMS_P1;PMS_P2;Temp;Humidity;BMP_temperature;BMP_pressure;BME280_temperature;BME280_humidity;BME280_pressure;Samples;Min_cycle;Max_cycle;Signal;HPM_P1;HPM_P2
2021/01/14 00:00:51;;;;;;;7.85;2.08;;;27.30;72.00;;;;;;5068173;28;20104;-60
2021/01/14 00:03:19;;;;;;;6.18;1.90;;;27.40;71.70;;;;;;5072108;28;20036;-57
2021/01/14 00:05:46;;;;;;;5.57;2.35;;;27.70;71.00;;;;;;5070877;28;20117;-60
2021/01/14 00:08:13;;;;;;;16.83;2.97;;;27.40;72.10;;;;;;5071831;28;20155;-58
2021/01/14 00:10:41;;;;;;;6.00;2.38;;;27.30;72.20;;;;;;5066706;28;20098;-59
2021/01/14 00:13:10;;;;;;;6.25;2.15;;;27.30;72.50;;;;;;5072508;28;20037;-63
2021/01/14 00:15:38;;;;;;;11.18;2.05;;;27.20;73.00;;;;;;5069292;28;20037;-58
2021/01/14 00:18:06;;;;;;;6.95;1.50;;;27.70;71.80;;;;;;5071928;28;20036;-61
2021/01/14 00:20:33;;;;;;;7.53;2.38;;;27.90;70.70;;;;;;5066905;28;20032;-61
2021/01/14 00:23:00;;;;;;;7.95;2.38;;;27.90;70.60;;;;;;5071745;28;20100;-61
2021/01/14 00:25:28;;;;;;;9.82;4.40;;;27.80;71.10;;;;;;5070814;28;20119;-58
2021/01/14 00:27:55;;;;;;;14.68;6.20;;;27.70;71.10;;;;;;5071879;28;20021;-61
2021/01/14 00:30:33;;;;;;;10.80;6.47;;;27.60;71.60;;;;;;5066703;28;20115;-56
2021/01/14 00:33:01;;;;;;;13.35;5.50;;;27.30;73.20;;;;;;5069849;28;20025;-59
2021/01/14 00:35:29;;;;;;;14.52;2.95;;;27.60;71.50;;;;;;5070279;28;20063;-62
2021/01/14 00:37:57;;;;;;;12.75;6.70;;;28.20;69.40;;;;;;5072094;28;20381;-62
2021/01/14 00:40:34;;;;;;;11.95;4.88;;;28.10;70.50;;;;;;5066554;28;20028;-55
2021/01/14 00:43:03;;;;;;;9.13;2.38;;;28.70;67.80;;;;;;5071141;28;20029;-66
2021/01/14 00:45:33;;;;;;;16.25;4.63;;;28.60;68.60;;;;;;5070160;28;20028;-61
2021/01/14 00:48:01;;;;;;;8.35;3.40;;;28.50;69.90;;;;;;5071608;28;20032;-62
2021/01/14 00:50:29;;;;;;;6.97;2.40;;;28.70;68.50;;;;;;5065747;28;20078;-58
2021/01/14 00:52:57;;;;;;;16.00;7.95;;;28.80;67.80;;;;;;5071437;28;20037;-63
2021/01/14 00:55:24;;;;;;;12.02;7.93;;;29.00;68.20;;;;;;5070214;28;20033;-63
2021/01/14 00:57:53;;;;;;;16.92;3.63;;;29.00;67.80;;;;;;5071267;28;20016;-61
2021/01/14 01:00:22;;;;;;;12.20;6.97;;;29.50;67.80;;;;;;5065648;28;20059;-59
2021/01/14 01:02:52;;;;;;;17.65;13.13;;;29.20;67.60;;;;;;5070415;28;20035;-60
2021/01/14 01:05:21;;;;;;;18.08;13.10;;;28.40;69.40;;;;;;5069740;28;20032;-62
2021/01/14 01:07:54;;;;;;;10.35;4.53;;;28.20;70.70;;;;;;5070846;28;20032;-62
2021/01/14 01:10:22;;;;;;;12.35;4.65;;;29.00;69.50;;;;;;5065686;28;20056;-62
2021/01/14 01:12:54;;;;;;;9.90;3.08;;;29.20;69.20;;;;;;5070813;28;20020;-60
2021/01/14 01:15:21;;;;;;;15.10;9.20;;;29.80;67.20;;;;;;5069366;28;20032;-59
2021/01/14 01:17:49;;;;;;;15.80;11.00;;;29.50;67.10;;;;;;5070780;28;20035;-62
2021/01/14 01:20:17;;;;;;;18.50;12.93;;;29.20;68.40;;;;;;5065474;28;20056;-60
2021/01/14 01:22:44;;;;;;;17.70;14.10;;;28.80;69.50;;;;;;5070743;28;20067;-60
2021/01/14 01:25:12;;;;;;;15.90;11.43;;;28.80;69.60;;;;;;5069967;28;20032;-61
2021/01/14 01:27:40;;;;;;;16.05;10.85;;;28.80;69.80;;;;;;5068804;28;20445;-63
2021/01/14 01:30:10;;;;;;;21.95;15.00;;;28.80;70.00;;;;;;5062542;28;20028;-63
2021/01/14 01:32:38;;;;;;;16.27;12.93;;;28.80;69.80;;;;;;5068133;28;20033;-61
2021/01/14 01:35:06;;;;;;;16.05;11.15;;;28.70;69.80;;;;;;5069381;28;20029;-61
2021/01/14 01:37:33;;;;;;;18.75;14.48;;;28.90;70.30;;;;;;5069430;28;20407;-62
2021/01/14 01:40:01;;;;;;;19.10;15.35;;;28.90;69.70;;;;;;5064938;28;20391;-62
2021/01/14 01:42:28;;;;;;;12.65;9.93;;;28.90;70.40;;;;;;5068910;28;20025;-64
2021/01/14 01:45:00;;;;;;;17.50;10.60;;;28.90;70.00;;;;;;5068446;28;20017;-61
2021/01/14 01:47:33;;;;;;;18.42;16.42;;;29.10;69.40;;;;;;5068803;28;20034;-64
2021/01/14 01:50:03;;;;;;;21.15;15.40;;;29.10;69.10;;;;;;5063999;28;20024;-62
2021/01/14 01:52:34;;;;;;;21.95;17.83;;;29.20;69.50;;;;;;5070166;28;20094;-62
2021/01/14 01:55:03;;;;;;;27.42;21.73;;;29.20;69.30;;;;;;5069921;28;20044;-63
2021/01/14 01:57:31;;;;;;;26.02;21.45;;;29.20;69.30;;;;;;5069315;28;20104;-61
2021/01/14 01:59:58;;;;;;;18.80;15.95;;;29.20;69.20;;;;;;5064505;28;20653;-61
2021/01/14 02:02:28;;;;;;;21.85;18.85;;;29.30;68.80;;;;;;5067893;28;20024;-64
2021/01/14 02:04:57;;;;;;;25.70;20.30;;;29.40;69.00;;;;;;5071472;28;20061;-63
2021/01/14 02:07:49;;;;;;;29.55;24.10;;;29.30;69.10;;;;;;5071429;28;20035;-64
2021/01/14 02:10:36;;;;;;;29.58;25.08;;;29.20;69.40;;;;;;5071382;28;20078;-57
2021/01/14 02:13:44;;;;;;;21.55;18.67;;;29.20;69.60;;;;;;5071113;28;20051;-62
2021/01/14 02:16:14;;;;;;;26.92;23.83;;;29.30;69.60;;;;;;5069710;28;20048;-63
2021/01/14 02:18:42;;;;;;;24.25;20.75;;;29.30;69.30;;;;;;5071534;28;20025;-62
2021/01/14 02:21:14;;;;;;;24.00;14.10;;;29.30;69.40;;;;;;5070469;28;20070;-64
2021/01/14 02:23:54;;;;;;;18.90;14.18;;;29.30;70.10;;;;;;5059095;28;20025;-62
2021/01/14 02:26:22;;;;;;;23.85;15.70;;;29.40;69.40;;;;;;5068478;28;20076;-60
2021/01/14 02:28:51;;;;;;;17.35;11.07;;;29.50;69.40;;;;;;5069324;28;20028;-60
2021/01/14 02:31:21;;;;;;;20.35;17.15;;;29.70;68.80;;;;;;5069145;28;20036;-60
2021/01/14 02:33:50;;;;;;;14.95;10.57;;;29.70;68.90;;;;;;5069852;28;20052;-60
2021/01/14 02:36:18;;;;;;;17.70;14.40;;;29.70;69.10;;;;;;5070238;28;20044;-60
2021/01/14 02:38:46;;;;;;;24.95;13.38;;;29.80;68.80;;;;;;5068617;28;20628;-59
2021/01/14 02:41:13;;;;;;;15.82;11.18;;;29.80;69.30;;;;;;5068379;28;20032;-67
2021/01/14 02:43:42;;;;;;;21.40;10.85;;;29.90;68.60;;;;;;5067542;28;20016;-63
2021/01/14 02:46:10;;;;;;;19.63;10.65;;;30.00;68.40;;;;;;5069604;28;20533;-62
2021/01/14 02:48:38;;;;;;;17.73;10.93;;;30.00;68.20;;;;;;5070210;28;20108;-66
2021/01/14 02:51:19;;;;;;;16.10;10.38;;;29.90;68.40;;;;;;5065708;28;20047;-60
2021/01/14 02:53:51;;;;;;;13.35;11.40;;;30.10;68.50;;;;;;5068750;28;20124;-62
2021/01/14 02:56:22;;;;;;;14.25;12.70;;;30.10;68.30;;;;;;5069859;28;20047;-65
2021/01/14 02:58:50;;;;;;;12.73;10.05;;;30.00;68.30;;;;;;5069407;28;20373;-61
2021/01/14 03:01:17;;;;;;;13.27;10.55;;;30.10;68.40;;;;;;5063230;28;20099;-63
2021/01/14 03:03:45;;;;;;;12.30;8.60;;;30.00;68.50;;;;;;5068784;28;20017;-62
2021/01/14 03:06:12;;;;;;;18.15;9.07;;;30.00;68.30;;;;;;5069711;28;20073;-63
2021/01/14 03:08:39;;;;;;;13.95;7.30;;;30.10;68.40;;;;;;5070520;28;20053;-64
2021/01/14 03:11:07;;;;;;;13.35;8.60;;;30.10;68.30;;;;;;5071107;28;20425;-63
2021/01/14 03:13:34;;;;;;;12.82;9.02;;;30.10;68.40;;;;;;5070467;28;20471;-64
2021/01/14 03:16:02;;;;;;;12.57;7.57;;;30.00;68.40;;;;;;5071073;28;20428;-63
2021/01/14 03:18:29;;;;;;;12.45;9.73;;;30.00;68.40;;;;;;5071084;28;20478;-68
2021/01/14 03:20:56;;;;;;;11.13;6.75;;;30.00;68.50;;;;;;5069378;28;20044;-65
2021/01/14 03:23:23;;;;;;;14.43;7.82;;;30.00;68.40;;;;;;5070399;28;20471;-67
2021/01/14 03:25:51;;;;;;;11.18;7.82;;;30.00;68.60;;;;;;5072599;28;20093;-69
2021/01/14 03:28:18;;;;;;;18.10;8.85;;;29.90;68.70;;;;;;5074276;28;20504;-64
2021/01/14 03:30:46;;;;;;;10.35;6.85;;;30.00;69.40;;;;;;5073441;28;20110;-66
2021/01/14 03:33:13;;;;;;;12.43;7.05;;;30.00;68.60;;;;;;5074422;28;20031;-64
2021/01/14 03:35:40;;;;;;;12.60;6.95;;;29.90;68.50;;;;;;5073181;28;20375;-65
2021/01/14 03:38:08;;;;;;;11.82;7.45;;;29.90;68.70;;;;;;5073266;28;20168;-67
2021/01/14 03:40:35;;;;;;;11.85;6.93;;;29.90;68.60;;;;;;5074254;28;20116;-66
2021/01/14 03:43:03;;;;;;;10.93;6.57;;;29.80;68.90;;;;;;5074028;28;20025;-64
2021/01/14 03:45:30;;;;;;;9.82;6.28;;;29.80;69.00;;;;;;5073691;28;20090;-62
2021/01/14 03:47:59;;;;;;;8.10;5.95;;;29.70;69.30;;;;;;5072407;28;20123;-69
2021/01/14 03:50:26;;;;;;;10.68;6.18;;;29.70;69.40;;;;;;5074088;28;20107;-67
2021/01/14 03:52:53;;;;;;;10.95;6.10;;;29.70;69.50;;;;;;5074137;28;20021;-63
2021/01/14 03:55:21;;;;;;;8.65;5.32;;;29.60;69.70;;;;;;5074295;28;20371;-69
2021/01/14 03:57:48;;;;;;;10.48;6.32;;;29.60;69.40;;;;;;5073878;28;20056;-67
2021/01/14 04:00:16;;;;;;;8.57;5.70;;;29.60;69.60;;;;;;5073823;28;20258;-62
2021/01/14 04:02:44;;;;;;;9.85;4.97;;;29.50;70.10;;;;;;5073797;28;20471;-65
2021/01/14 04:05:13;;;;;;;14.98;6.05;;;29.50;70.10;;;;;;5073847;28;20028;-63
2021/01/14 04:07:41;;;;;;;18.27;5.85;;;29.40;70.10;;;;;;5073601;28;20029;-64
2021/01/14 04:10:09;;;;;;;9.75;5.25;;;29.50;70.00;;;;;;5064109;28;20037;-64
2021/01/14 04:12:36;;;;;;;10.82;4.97;;;29.50;70.20;;;;;;5070704;28;20039;-66
2021/01/14 04:15:04;;;;;;;14.07;4.70;;;29.60;69.90;;;;;;5070492;28;20040;-62
2021/01/14 04:17:31;;;;;;;11.40;4.82;;;29.50;69.80;;;;;;5072537;28;20076;-64
2021/01/14 04:19:59;;;;;;;12.65;4.45;;;29.50;70.20;;;;;;5071317;28;20071;-66
2021/01/14 04:22:27;;;;;;;11.05;4.40;;;29.60;69.80;;;;;;5068672;28;20491;-66
2021/01/14 04:25:02;;;;;;;10.35;3.95;;;29.50;69.60;;;;;;5071908;28;20028;-63
2021/01/14 04:27:30;;;;;;;12.80;5.28;;;29.60;69.70;;;;;;5072068;28;20081;-63
2021/01/14 04:29:57;;;;;;;10.23;4.65;;;29.50;70.10;;;;;;5068966;28;20395;-62
2021/01/14 04:32:25;;;;;;;9.68;4.10;;;29.40;70.40;;;;;;5066774;28;20476;-65
2021/01/14 04:34:58;;;;;;;16.23;11.30;;;29.50;70.30;;;;;;5070782;28;20038;-59
2021/01/14 04:37:27;;;;;;;22.38;15.15;;;29.40;70.60;;;;;;5070916;28;20025;-63
2021/01/14 04:39:55;;;;;;;21.10;16.33;;;29.40;70.50;;;;;;5069479;28;20032;-60
2021/01/14 04:42:28;;;;;;;18.77;15.32;;;29.40;70.50;;;;;;5064296;28;20024;-64
2021/01/14 04:44:57;;;;;;;15.65;10.48;;;29.50;70.50;;;;;;5071502;28;20028;-62
2021/01/14 04:47:28;;;;;;;13.45;9.02;;;29.50;70.40;;;;;;5069346;28;20471;-63
2021/01/14 04:49:58;;;;;;;;;;;29.60;70.30;;;;;;5071898;28;20447;-64
2021/01/14 04:52:30;;;;;;;14.32;6.15;;;29.60;70.00;;;;;;5065517;28;19912;-64
2021/01/14 04:55:02;;;;;;;13.73;9.77;;;29.70;69.80;;;;;;5071385;28;20029;-61
2021/01/14 04:57:35;;;;;;;11.20;7.97;;;29.70;70.00;;;;;;5069527;28;20119;-61
2021/01/14 05:00:03;;;;;;;15.60;6.80;;;29.60;70.20;;;;;;5069683;28;20031;-62
2021/01/14 05:02:35;;;;;;;13.43;10.40;;;29.50;69.90;;;;;;5066386;28;20039;-60
2021/01/14 05:05:06;;;;;;;9.48;5.63;;;29.40;70.40;;;;;;5070662;28;20119;-63
2021/01/14 05:07:34;;;;;;;12.80;7.43;;;29.60;69.70;;;;;;5072171;28;20459;-65
2021/01/14 05:10:05;;;;;;;14.50;6.22;;;30.10;67.70;;;;;;5071900;28;20039;-64
2021/01/14 05:12:34;;;;;;;8.20;5.30;;;30.30;66.90;;;;;;5072524;28;20070;-62
2021/01/14 05:15:03;;;;;;;10.38;6.20;;;30.40;67.20;;;;;;5072302;28;20055;-63
2021/01/14 05:17:31;;;;;;;10.52;3.80;;;30.30;66.40;;;;;;5071722;28;20054;-59
2021/01/14 05:19:58;;;;;;;9.77;3.78;;;30.30;65.90;;;;;;5071999;28;20036;-63
2021/01/14 05:22:26;;;;;;;13.90;3.67;;;30.20;66.10;;;;;;5072201;28;20029;-61
2021/01/14 05:25:10;;;;;;;22.33;3.35;;;30.20;65.30;;;;;;5072350;28;20382;-60
2021/01/14 05:27:38;;;;;;;13.50;3.72;;;30.20;65.80;;;;;;5071593;28;20028;-62
2021/01/14 05:30:08;;;;;;;13.88;2.72;;;30.20;65.90;;;;;;5071971;28;20074;-59
2021/01/14 05:32:43;;;;;;;12.88;2.70;;;30.20;65.60;;;;;;5070945;28;20033;-64
2021/01/14 05:35:14;;;;;;;12.45;3.10;;;30.30;65.60;;;;;;5070296;28;20024;-67
2021/01/14 05:37:43;;;;;;;12.95;3.85;;;30.20;64.70;;;;;;5071542;28;20025;-59
2021/01/14 05:40:14;;;;;;;11.27;2.50;;;30.30;65.50;;;;;;5071570;28;20032;-64
2021/01/14 05:42:45;;;;;;;11.98;2.92;;;30.20;65.30;;;;;;5070555;28;20475;-63
2021/01/14 05:45:23;;;;;;;9.82;3.38;;;30.20;65.80;;;;;;5072454;28;20052;-63
2021/01/14 05:48:08;;;;;;;12.48;3.50;;;30.10;66.00;;;;;;5070751;28;20536;-63
2021/01/14 05:50:44;;;;;;;15.73;4.32;;;30.10;66.90;;;;;;5071620;28;20024;-62
2021/01/14 05:53:19;;;;;;;12.88;4.57;;;30.00;67.80;;;;;;5071611;28;20032;-62
2021/01/14 05:55:52;;;;;;;17.50;7.35;;;30.10;66.30;;;;;;5069715;28;20028;-61
2021/01/14 05:58:20;;;;;;;12.63;3.60;;;30.00;67.40;;;;;;5071143;28;20158;-60
2021/01/14 06:00:50;;;;;;;16.23;4.00;;;30.00;65.80;;;;;;5071146;28;20025;-61
2021/01/14 06:03:31;;;;;;;12.02;3.15;;;30.00;65.00;;;;;;5071423;28;20048;-62
2021/01/14 06:05:59;;;;;;;11.70;3.28;;;30.10;66.00;;;;;;5071343;28;20614;-61
2021/01/14 06:08:28;;;;;;;10.13;2.90;;;30.20;65.80;;;;;;5071352;28;20024;-58
2021/01/14 06:10:56;;;;;;;10.10;2.58;;;30.20;64.40;;;;;;5071187;28;20092;-61
2021/01/14 06:13:40;;;;;;;18.65;2.88;;;30.30;63.90;;;;;;5070933;28;20104;-59
2021/01/14 06:16:08;;;;;;;10.35;2.58;;;30.30;63.90;;;;;;5071244;28;20111;-60
2021/01/14 06:18:35;;;;;;;16.05;3.25;;;30.20;64.00;;;;;;5070336;28;20069;-65
2021/01/14 06:21:03;;;;;;;10.75;2.78;;;30.30;63.80;;;;;;5070106;28;20056;-56
2021/01/14 06:23:46;;;;;;;8.85;2.20;;;30.30;63.60;;;;;;5070627;28;20048;-61
2021/01/14 06:26:27;;;;;;;10.70;2.55;;;30.20;63.80;;;;;;5069498;28;20036;-59
2021/01/14 06:28:55;;;;;;;15.50;2.70;;;30.20;64.10;;;;;;5068705;28;20036;-59
2021/01/14 06:31:26;;;;;;;11.15;2.35;;;30.20;63.40;;;;;;5068774;28;20403;-62
2021/01/14 06:33:55;;;;;;;17.55;2.17;;;30.20;63.30;;;;;;5068735;28;20032;-61
2021/01/14 06:36:33;;;;;;;14.63;3.17;;;30.20;64.00;;;;;;5068949;28;20044;-61
2021/01/14 06:39:11;;;;;;;7.40;2.45;;;30.40;63.10;;;;;;5068656;28;20103;-62
2021/01/14 06:41:41;;;;;;;11.50;2.58;;;30.30;63.00;;;;;;5069070;28;20075;-62
2021/01/14 06:44:10;;;;;;;17.42;3.33;;;30.20;63.10;;;;;;5071166;28;20040;-62
2021/01/14 06:46:37;;;;;;;10.48;2.90;;;30.30;63.40;;;;;;5070632;28;20104;-65
2021/01/14 06:49:15;;;;;;;12.40;2.60;;;30.40;63.50;;;;;;5070518;28;20028;-63
2021/01/14 06:52:02;;;;;;;12.82;2.40;;;30.30;63.50;;;;;;5062843;28;20445;-63
2021/01/14 06:54:37;;;;;;;10.63;2.30;;;30.20;63.10;;;;;;5068286;28;20470;-63
2021/01/14 06:57:15;;;;;;;10.02;2.78;;;30.30;63.40;;;;;;5050215;28;20211;-61
2021/01/14 06:59:43;;;;;;;10.00;2.30;;;30.30;63.60;;;;;;5050096;28;20033;-61
2021/01/14 07:02:36;;;;;;;13.25;2.35;;;30.30;63.40;;;;;;5054787;28;20541;-59
2021/01/14 07:05:06;;;;;;;10.13;2.80;;;30.30;63.20;;;;;;5054519;28;20021;-66
2021/01/14 07:07:46;;;;;;;10.55;2.78;;;30.30;63.70;;;;;;5054322;28;20021;-61
2021/01/14 07:10:15;;;;;;;14.73;3.05;;;30.20;64.00;;;;;;5054188;28;20025;-63
2021/01/14 07:12:46;;;;;;;13.23;3.15;;;30.30;62.20;;;;;;5054012;28;20021;-65
2021/01/14 07:15:16;;;;;;;7.53;2.58;;;30.30;65.50;;;;;;5053756;28;20032;-63
2021/01/14 07:17:45;;;;;;;12.93;2.70;;;30.20;63.50;;;;;;5054102;28;20077;-65
2021/01/14 07:20:15;;;;;;;14.15;3.90;;;30.30;63.00;;;;;;5053656;28;20017;-65
2021/01/14 07:22:59;;;;;;;15.02;3.20;;;30.40;64.70;;;;;;5053759;28;20064;-63
2021/01/14 07:25:28;;;;;;;11.50;3.00;;;30.30;64.00;;;;;;5054062;28;20542;-65
2021/01/14 07:27:57;;;;;;;;;;;30.30;63.30;;;;;;5054302;28;20438;-65
2021/01/14 07:30:26;;;;;;;23.00;3.88;;;30.20;66.00;;;;;;5059338;28;19915;-61
2021/01/14 07:32:58;;;;;;;21.17;4.55;;;30.10;67.10;;;;;;5073909;28;20165;-62
2021/01/14 07:35:35;;;;;;;26.13;6.30;;;29.90;68.50;;;;;;5072046;28;20032;-59
2021/01/14 07:38:03;;;;;;;24.30;5.32;;;29.70;69.70;;;;;;5073948;28;20150;-61
2021/01/14 07:40:32;;;;;;;24.52;5.47;;;29.50;70.90;;;;;;5073504;28;20027;-60
2021/01/14 07:43:03;;;;;;;26.45;5.93;;;29.30;71.50;;;;;;5073997;28;20017;-61
2021/01/14 07:45:31;;;;;;;35.80;8.40;;;29.10;72.50;;;;;;5073974;28;20034;-61
2021/01/14 07:48:17;;;;;;;36.60;8.70;;;28.90;73.40;;;;;;5074119;28;20052;-63
2021/01/14 07:51:00;;;;;;;33.60;8.90;;;28.60;74.80;;;;;;5074209;28;20095;-64
2021/01/14 07:53:27;;;;;;;23.15;7.82;;;28.50;76.40;;;;;;5073584;28;20056;-61
2021/01/14 07:55:55;;;;;;;41.53;10.57;;;28.40;76.10;;;;;;5073476;28;20040;-66
2021/01/14 07:58:24;;;;;;;47.55;11.05;;;28.30;77.10;;;;;;5073140;28;20024;-63
2021/01/14 08:01:11;;;;;;;47.75;13.05;;;28.10;77.00;;;;;;5073087;28;20024;-61
2021/01/14 08:03:44;;;;;;;53.75;12.35;;;27.90;77.40;;;;;;5073008;28;20024;-63
2021/01/14 08:06:29;;;;;;;53.45;12.20;;;27.80;77.70;;;;;;5068507;28;20490;-65
2021/01/14 08:09:02;;;;;;;49.33;12.63;;;27.50;78.90;;;;;;5073458;28;20119;-60
2021/01/14 08:11:31;;;;;;;48.03;12.85;;;27.30;80.30;;;;;;5072762;28;20084;-60
2021/01/14 08:14:09;;;;;;;51.88;12.55;;;27.30;80.40;;;;;;5073534;28;20113;-62
2021/01/14 08:16:38;;;;;;;46.28;11.98;;;27.30;80.90;;;;;;5073345;28;20025;-63
2021/01/14 08:19:14;;;;;;;55.90;14.77;;;27.10;80.90;;;;;;5073038;28;20024;-57
2021/01/14 08:22:07;;;;;;;49.67;14.68;;;27.10;81.90;;;;;;5072725;28;20048;-60
2021/01/14 08:24:45;;;;;;;56.63;13.45;;;27.00;82.80;;;;;;5073294;28;20016;-61
2021/01/14 08:27:29;;;;;;;53.58;12.63;;;27.00;82.30;;;;;;5073096;28;20025;-61
2021/01/14 08:30:00;;;;;;;47.65;12.68;;;27.00;82.20;;;;;;5071840;28;20050;-60
2021/01/14 08:32:40;;;;;;;51.05;14.35;;;26.90;82.00;;;;;;5072959;28;20021;-63
2021/01/14 08:35:16;;;;;;;60.75;15.23;;;26.80;82.50;;;;;;5073044;28;20037;-62
2021/01/14 08:37:50;;;;;;;53.38;13.65;;;26.70;81.30;;;;;;5072615;28;20024;-62
2021/01/14 08:40:37;;;;;;;53.58;13.55;;;26.60;80.80;;;;;;5072856;28;20024;-61
2021/01/14 08:43:09;;;;;;;56.40;13.32;;;26.50;81.70;;;;;;5072892;28;20116;-62
2021/01/14 08:45:49;;;;;;;49.60;13.15;;;26.40;82.80;;;;;;5072885;28;20036;-61
2021/01/14 08:48:28;;;;;;;49.88;13.38;;;26.30;83.70;;;;;;5071694;28;20060;-61
2021/01/14 08:50:55;;;;;;;52.20;13.45;;;26.30;84.50;;;;;;5072468;28;20052;-60
2021/01/14 08:53:32;;;;;;;40.50;12.63;;;26.20;85.20;;;;;;5072563;28;20020;-60
2021/01/14 08:56:18;;;;;;;57.70;13.55;;;26.30;85.50;;;;;;5072707;28;20040;-61
2021/01/14 08:58:50;;;;;;;53.60;13.30;;;26.20;84.70;;;;;;5072771;28;20059;-60
2021/01/14 09:01:26;;;;;;;38.92;11.60;;;26.10;85.30;;;;;;5072474;28;20090;-59
2021/01/14 09:03:55;;;;;;;51.92;14.18;;;26.10;86.00;;;;;;5072429;28;20056;-57
2021/01/14 09:06:40;;;;;;;51.45;12.50;;;25.90;85.50;;;;;;5072333;28;20028;-58
2021/01/14 09:09:16;;;;;;;52.22;13.75;;;25.90;85.20;;;;;;5072184;28;20480;-63
2021/01/14 09:11:43;;;;;;;56.58;13.00;;;25.80;85.90;;;;;;5072150;28;20024;-59
2021/01/14 09:14:12;;;;;;;57.75;16.27;;;25.80;86.20;;;;;;5072568;28;20062;-61
2021/01/14 09:16:42;;;;;;;56.60;13.10;;;25.60;85.70;;;;;;5072430;28;20043;-58
2021/01/14 09:19:15;;;;;;;54.70;12.57;;;25.50;85.70;;;;;;5072593;28;20020;-61
2021/01/14 09:21:43;;;;;;;49.92;12.25;;;25.40;86.00;;;;;;5072206;28;20056;-61
2021/01/14 09:24:12;;;;;;;47.80;13.23;;;25.40;86.10;;;;;;5071606;28;20024;-63
2021/01/14 09:26:41;;;;;;;44.83;12.25;;;25.40;87.10;;;;;;5071893;28;20025;-59
2021/01/14 09:29:11;;;;;;;57.13;12.85;;;25.40;86.90;;;;;;5070328;28;20491;-61
2021/01/14 09:31:40;;;;;;;50.90;12.20;;;25.30;86.60;;;;;;5071811;28;20037;-58
2021/01/14 09:34:07;;;;;;;47.78;13.25;;;25.40;86.40;;;;;;5071986;28;20029;-60
2021/01/14 09:36:35;;;;;;;49.67;13.23;;;25.40;85.90;;;;;;5072069;28;20483;-59
2021/01/14 09:39:05;;;;;;;52.28;12.23;;;25.40;86.50;;;;;;5071137;28;20021;-59
2021/01/14 09:41:40;;;;;;;53.55;13.15;;;25.40;85.50;;;;;;5071890;28;20413;-59
2021/01/14 09:44:13;;;;;;;50.20;12.10;;;25.30;85.10;;;;;;5063144;28;20036;-63
2021/01/14 09:46:42;;;;;;;49.25;12.95;;;25.30;85.10;;;;;;5070142;28;20021;-63
2021/01/14 09:49:19;;;;;;;56.67;12.57;;;25.40;85.10;;;;;;5065860;28;20519;-54
2021/01/14 09:51:51;;;;;;;46.95;11.50;;;25.40;85.00;;;;;;5068176;28;20507;-55
2021/01/14 09:54:20;;;;;;;39.05;12.10;;;25.50;84.60;;;;;;5068132;28;20407;-62
2021/01/14 09:56:57;;;;;;;39.10;11.38;;;25.50;84.40;;;;;;5067254;28;20040;-65
2021/01/14 09:59:36;;;;;;;38.70;10.93;;;25.60;84.20;;;;;;5064934;28;20522;-57
2021/01/14 10:02:34;;;;;;;50.50;11.32;;;25.60;84.10;;;;;;5068659;28;20069;-54
2021/01/14 10:05:13;;;;;;;37.70;11.05;;;25.70;84.00;;;;;;5066083;28;20111;-52
2021/01/14 10:07:45;;;;;;;44.17;10.95;;;25.70;83.70;;;;;;5067206;28;20021;-62
2021/01/14 10:10:13;;;;;;;43.60;11.35;;;25.70;83.90;;;;;;5064350;28;20104;-60
2021/01/14 10:12:41;;;;;;;35.60;11.07;;;25.70;83.60;;;;;;5069704;28;20025;-52
2021/01/14 10:15:13;;;;;;;40.10;10.90;;;25.70;84.10;;;;;;5066622;28;20123;-52
2021/01/14 10:17:41;;;;;;;;;;;25.80;83.70;;;;;;5067827;28;20052;-55
2021/01/14 10:20:12;;;;;;;39.10;9.40;;;25.70;83.70;;;;;;5065517;28;20002;-58
2021/01/14 10:22:53;;;;;;;31.53;9.33;;;25.70;83.60;;;;;;5070060;28;20215;-53
2021/01/14 10:25:21;;;;;;;38.92;10.48;;;25.80;83.70;;;;;;5067272;28;20285;-63
2021/01/14 10:28:07;;;;;;;27.70;8.75;;;25.80;83.50;;;;;;5070143;28;20039;-54
2021/01/14 10:30:40;;;;;;;32.88;9.93;;;25.80;83.30;;;;;;5065012;28;20491;-56
2021/01/14 10:33:08;;;;;;;26.70;9.00;;;25.80;83.00;;;;;;5069704;28;20029;-55
2021/01/14 10:35:37;;;;;;;28.77;9.68;;;25.80;82.90;;;;;;5072107;28;20060;-59
2021/01/14 10:38:12;;;;;;;29.70;9.57;;;25.80;82.90;;;;;;5074117;28;20028;-54
2021/01/14 10:40:42;;;;;;;22.58;8.55;;;25.80;82.80;;;;;;5068297;28;20036;-57
2021/01/14 10:43:10;;;;;;;30.88;9.55;;;25.80;83.00;;;;;;5072273;28;20451;-57
2021/01/14 10:45:39;;;;;;;27.55;8.52;;;25.80;82.80;;;;;;5072660;28;20033;-58
2021/01/14 10:48:08;;;;;;;29.55;8.07;;;25.80;82.90;;;;;;5073887;28;20040;-59
2021/01/14 10:50:48;;;;;;;25.75;8.68;;;25.90;82.60;;;;;;5068414;28;20109;-61
2021/01/14 10:53:28;;;;;;;23.73;8.52;;;25.80;82.70;;;;;;5069093;28;20528;-61
2021/01/14 10:56:08;;;;;;;34.00;9.45;;;25.80;82.50;;;;;;5070749;28;20362;-54
2021/01/14 10:58:38;;;;;;;26.65;7.85;;;25.90;82.60;;;;;;5074039;28;20031;-57
2021/01/14 11:01:19;;;;;;;30.88;7.88;;;25.90;82.60;;;;;;5068464;28;20028;-57
2021/01/14 11:03:47;;;;;;;24.30;7.85;;;25.90;82.40;;;;;;5069741;28;20043;-58
2021/01/14 11:06:38;;;;;;;22.10;7.65;;;25.90;82.40;;;;;;5071523;28;20078;-65
2021/01/14 11:09:08;;;;;;;24.98;8.23;;;25.80;82.20;;;;;;5073731;28;20020;-63
2021/01/14 11:11:36;;;;;;;27.23;7.55;;;25.90;82.40;;;;;;5068415;28;20051;-56
2021/01/14 11:14:07;;;;;;;29.38;9.02;;;25.90;82.30;;;;;;5072342;28;20020;-55
2021/01/14 11:16:34;;;;;;;24.30;7.97;;;25.90;82.30;;;;;;5073031;28;20052;-57
2021/01/14 11:19:03;;;;;;;29.73;8.57;;;25.90;82.30;;;;;;5073199;28;20359;-57
2021/01/14 11:21:32;;;;;;;25.83;7.70;;;25.90;82.10;;;;;;5067353;28;20056;-54
2021/01/14 11:24:00;;;;;;;23.83;8.70;;;25.90;81.90;;;;;;5072954;28;20044;-59
2021/01/14 11:26:31;;;;;;;25.90;8.18;;;25.90;82.10;;;;;;5072316;28;20131;-58
2021/01/14 11:28:58;;;;;;;23.90;7.93;;;25.90;82.10;;;;;;5073101;28;20506;-63
2021/01/14 11:31:27;;;;;;;23.52;7.55;;;25.90;82.00;;;;;;5067433;28;20273;-61
2021/01/14 11:33:56;;;;;;;25.08;8.18;;;25.90;82.10;;;;;;5073143;28;20020;-61
2021/01/14 11:36:25;;;;;;;23.00;8.40;;;25.90;81.80;;;;;;5071015;28;20372;-61
2021/01/14 11:38:52;;;;;;;23.50;7.75;;;25.90;81.80;;;;;;5073123;28;20025;-64
2021/01/14 11:41:25;;;;;;;18.77;6.82;;;25.80;81.90;;;;;;5068373;28;20089;-63
2021/01/14 11:43:52;;;;;;;26.17;8.55;;;25.80;81.80;;;;;;5072656;28;20442;-57
2021/01/14 11:46:25;;;;;;;18.88;6.75;;;25.80;81.70;;;;;;5070135;28;20368;-60
2021/01/14 11:48:53;;;;;;;21.98;7.40;;;25.80;81.80;;;;;;5072879;28;20099;-64
2021/01/14 11:51:20;;;;;;;21.23;7.68;;;25.80;81.80;;;;;;5068599;28;20028;-61
2021/01/14 11:53:48;;;;;;;24.65;7.95;;;25.90;81.70;;;;;;5071000;28;20062;-59
2021/01/14 11:56:20;;;;;;;22.48;7.50;;;25.80;81.60;;;;;;5070192;28;20070;-62
2021/01/14 11:58:47;;;;;;;27.88;8.43;;;25.80;81.50;;;;;;5072777;28;20020;-62
2021/01/14 12:01:14;;;;;;;22.58;7.00;;;25.80;81.60;;;;;;5068153;28;20062;-60
2021/01/14 12:03:45;;;;;;;23.13;7.47;;;25.80;81.70;;;;;;5073148;28;20024;-61
2021/01/14 12:06:13;;;;;;;19.65;7.15;;;25.80;81.70;;;;;;5065986;28;20106;-65
2021/01/14 12:08:41;;;;;;;18.50;6.95;;;25.80;81.70;;;;;;5073378;28;20445;-63
2021/01/14 12:11:09;;;;;;;23.17;7.72;;;25.80;81.50;;;;;;5074426;28;20119;-63
2021/01/14 12:13:37;;;;;;;21.75;6.68;;;25.80;81.60;;;;;;5074454;28;20459;-63
2021/01/14 12:16:05;;;;;;;22.52;8.15;;;25.70;81.30;;;;;;5074056;28;20036;-57
2021/01/14 12:18:32;;;;;;;22.17;8.73;;;25.70;81.50;;;;;;5073317;28;20459;-55
2021/01/14 12:20:59;;;;;;;18.35;6.60;;;25.70;81.70;;;;;;5071279;28;20131;-59
2021/01/14 12:23:27;;;;;;;24.77;7.05;;;25.70;81.70;;;;;;5073885;28;20028;-63
2021/01/14 12:25:54;;;;;;;22.85;7.63;;;25.70;81.70;;;;;;5073771;28;20017;-62
2021/01/14 12:28:21;;;;;;;20.65;6.32;;;25.70;81.60;;;;;;5073977;28;20020;-67
2021/01/14 12:30:48;;;;;;;19.05;6.57;;;25.70;81.70;;;;;;5073873;28;20028;-63
2021/01/14 12:33:16;;;;;;;17.77;6.45;;;25.70;81.60;;;;;;5072989;28;20071;-63
2021/01/14 12:35:43;;;;;;;15.57;5.90;;;25.70;81.50;;;;;;5073270;28;20469;-65
2021/01/14 12:38:10;;;;;;;19.38;6.78;;;25.60;81.30;;;;;;5063622;28;20021;-61
2021/01/14 12:40:38;;;;;;;17.05;6.28;;;25.60;81.40;;;;;;5071511;28;20487;-66
2021/01/14 12:43:05;;;;;;;16.63;6.22;;;25.60;81.30;;;;;;5070261;28;20037;-66
2021/01/14 12:45:32;;;;;;;18.80;5.72;;;25.60;81.20;;;;;;5071989;28;20078;-63
2021/01/14 12:48:00;;;;;;;15.20;5.82;;;25.50;81.10;;;;;;5072230;28;20056;-63
2021/01/14 12:50:27;;;;;;;20.38;7.47;;;25.50;81.10;;;;;;5072510;28;20025;-63
2021/01/14 12:52:54;;;;;;;21.52;7.03;;;25.60;82.10;;;;;;5073931;28;20074;-60
2021/01/14 12:55:22;;;;;;;22.65;7.30;;;25.50;82.20;;;;;;5073456;28;20029;-59